Weather History for Morris, MN

Change the Weather History Date:

Wednesday, February 13, 2013

  Actual Average Record
Temperature  
Mean Temperature 22 °F -  
Max Temperature 32 °F 24 °F 64 °F (1997)
Min Temperature 12 °F 8 °F -16 °F (2000)
Degree Days  
Heating Degree Days 43    
Moisture  
Dew Point 23 °F    
Average Humidity 89    
Maximum Humidity 100    
Minimum Humidity 74    
Precipitation  
Precipitation 0.05 in - - ()
Sea Level Pressure  
Sea Level Pressure 29.65 in    
Wind  
Wind Speed 5 mph (SW)    
Max Wind Speed 20 mph    
Max Gust Speed -    
Visibility 7 miles    
Events Rain , Snow    
Averages and records for this station are not official NWS values.
T = Trace of Precipitation, MM = Missing Value Source: NWS Daily Summary

Daily Weather History Graph

Daily Weather History Graph

Search for Another Location

Airport:

Trip Planner

Search our weather history database for the weather conditions in past years. The results will help you decide how hot, cold, wet, or windy it might be!

Date:

Astronomy

Feb. 13, 2013 Rise Set
Actual Time 7:28 AM CST 5:48 PM CST
Civil Twilight 6:57 AM CST 6:19 PM CST
Nautical Twilight 6:22 AM CST 6:53 PM CST
Astronomical Twilight 5:48 AM CST 7:28 PM CST
Moon 8:44 AM CST (2/13) 10:07 PM CST (2/13)
Length of Visible Light 11h 21m
Length of Day
10h 20m
Waxing Crescent, 14% of the Moon is Illuminated
Feb 13
Waxing Crescent
Feb 17
First Quarter
Feb 25
Full
Mar 4
Last Quarter
Mar 11
New

Hourly Weather History & Observations

Time (CST) Temp. Windchill Dew Point Humidity Pressure Visibility Wind Dir Wind Speed Gust Speed Precip Events Conditions
12:12 AM 12.2 °F 4.3 °F 10.4 °F 92% 29.77 in 10.0 mi WSW 4.6 mph - N/A   Clear
12:32 AM 14.0 °F 6.5 °F 12.2 °F 93% 29.77 in 10.0 mi West 4.6 mph - N/A   Scattered Clouds
12:52 AM 14.0 °F - 12.2 °F 93% 29.77 in 10.0 mi Calm Calm - N/A   Scattered Clouds
1:12 AM 14.0 °F 6.5 °F 12.2 °F 93% 29.77 in 10.0 mi WSW 4.6 mph - N/A   Clear
1:32 AM 15.8 °F 7.2 °F 14.0 °F 93% 29.77 in 10.0 mi West 5.8 mph - N/A   Scattered Clouds
1:52 AM 15.8 °F 7.2 °F 12.2 °F 86% 29.76 in 10.0 mi WSW 5.8 mph - N/A   Scattered Clouds
2:12 AM 15.8 °F 8.6 °F 14.0 °F 93% 29.76 in 10.0 mi West 4.6 mph - N/A   Mostly Cloudy
2:32 AM 17.6 °F 9.3 °F 14.0 °F 86% 29.76 in 10.0 mi West 5.8 mph - N/A   Overcast
2:52 AM 17.6 °F 10.7 °F 15.8 °F 93% 29.75 in 10.0 mi West 4.6 mph - N/A   Overcast
3:12 AM 19.4 °F 12.8 °F 17.6 °F 93% 29.75 in 10.0 mi WSW 4.6 mph - N/A   Overcast
3:32 AM 21.2 °F 12.6 °F 17.6 °F 86% 29.74 in 10.0 mi WSW 6.9 mph - N/A   Overcast
3:52 AM 24.8 °F 19.1 °F 19.4 °F 80% 29.73 in 10.0 mi WSW 4.6 mph - N/A   Overcast
4:12 AM 24.8 °F 19.1 °F 21.2 °F 86% 29.72 in 10.0 mi SW 4.6 mph - N/A   Overcast
4:32 AM 24.8 °F - 21.2 °F 86% 29.72 in 10.0 mi Calm Calm - N/A   Overcast
4:52 AM 23.0 °F 18.4 °F 19.4 °F 86% 29.71 in 10.0 mi South 3.5 mph - N/A   Overcast
5:12 AM 21.2 °F 13.6 °F 19.4 °F 93% 29.70 in 10.0 mi South 5.8 mph - N/A   Overcast
5:32 AM 23.0 °F 15.8 °F 21.2 °F 93% 29.70 in 10.0 mi South 5.8 mph - N/A   Overcast
5:52 AM 24.8 °F 16.1 °F 21.2 °F 86% 29.69 in 10.0 mi SSW 8.1 mph - N/A   Overcast
6:12 AM 26.6 °F - 21.2 °F 80% 29.70 in 10.0 mi Calm Calm - N/A   Overcast
6:32 AM 26.6 °F 21.2 °F 23.0 °F 86% 29.69 in 10.0 mi West 4.6 mph - N/A   Overcast
6:52 AM 26.6 °F - 21.2 °F 80% 29.68 in 10.0 mi Calm Calm - N/A   Mostly Cloudy
7:12 AM 24.8 °F 20.5 °F 21.2 °F 86% 29.68 in 10.0 mi West 3.5 mph - N/A   Scattered Clouds
7:32 AM 24.8 °F 20.5 °F 21.2 °F 86% 29.68 in 10.0 mi WSW 3.5 mph - N/A   Clear
7:52 AM 24.8 °F - 19.4 °F 80% 29.68 in 10.0 mi Calm Calm - N/A   Clear
8:12 AM 21.2 °F 16.4 °F 17.6 °F 86% 29.68 in 10.0 mi SW 3.5 mph - N/A   Clear
8:32 AM 23.0 °F 18.4 °F 19.4 °F 86% 29.68 in 10.0 mi WSW 3.5 mph - N/A   Clear
8:52 AM 23.0 °F 18.4 °F 17.6 °F 80% 29.68 in 10.0 mi WSW 3.5 mph - N/A   Clear
9:12 AM 21.2 °F - 17.6 °F 86% 29.67 in 10.0 mi Calm Calm - N/A   Clear
9:32 AM 21.2 °F 16.4 °F 17.6 °F 86% 29.66 in 10.0 mi South 3.5 mph - N/A   Clear
9:52 AM 21.2 °F - 17.6 °F 86% 29.66 in 10.0 mi Calm Calm - N/A   Clear
10:12 AM 23.0 °F 18.4 °F 17.6 °F 80% 29.66 in 10.0 mi SE 3.5 mph - N/A   Clear
10:32 AM 24.8 °F - 19.4 °F 80% 29.65 in 10.0 mi Calm Calm - N/A   Clear
11:12 AM 28.4 °F - 21.2 °F 74% 29.65 in 10.0 mi Calm Calm - N/A   Clear
11:32 AM 30.2 °F - 23.0 °F 75% 29.65 in 10.0 mi Calm Calm - N/A   Clear
11:52 AM 30.2 °F - 24.8 °F 80% 29.64 in 10.0 mi Calm Calm - N/A   Clear
12:12 PM 30.2 °F 26.7 °F 24.8 °F 80% 29.63 in 10.0 mi South 3.5 mph - N/A   Clear
12:52 PM 32.0 °F - 26.6 °F 80% 29.62 in 10.0 mi Calm Calm - N/A   Clear
1:12 PM 32.0 °F 28.7 °F 26.6 °F 80% 29.61 in 7.0 mi SE 3.5 mph - N/A Rain Light Rain
1:32 PM 32.0 °F 26.4 °F 26.6 °F 80% 29.60 in 4.0 mi SE 5.8 mph - N/A Snow Light Snow
1:52 PM 32.0 °F 27.5 °F 26.6 °F 80% 29.59 in 7.0 mi SE 4.6 mph - N/A   Light Drizzle
2:12 PM 30.2 °F 24.3 °F 26.6 °F 86% 29.58 in 1.2 mi SSE 5.8 mph - N/A Snow Light Snow
2:32 PM 30.2 °F 24.3 °F 28.4 °F 93% 29.57 in 1.2 mi SSE 5.8 mph - N/A Snow Light Snow
2:52 PM 30.2 °F 22.6 °F 28.4 °F 93% 29.56 in 2.5 mi SE 8.1 mph - N/A Snow Light Snow
3:12 PM 30.2 °F 21.9 °F 28.4 °F 93% 29.55 in 2.0 mi SE 9.2 mph - 0.01 in   Overcast
3:32 PM 30.2 °F 23.4 °F 28.4 °F 93% 29.56 in 1.5 mi SE 6.9 mph - 0.03 in Snow Light Snow
3:52 PM 30.2 °F 24.3 °F 28.4 °F 93% 29.56 in 1.0 mi SSE 5.8 mph - 0.04 in Snow Light Snow
4:12 PM 30.2 °F 24.3 °F 28.4 °F 93% 29.56 in 0.8 mi SSE 5.8 mph - N/A Snow Light Snow
4:32 PM 30.2 °F 24.3 °F 28.4 °F 93% 29.55 in 1.8 mi South 5.8 mph - N/A Snow Light Snow
4:52 PM 30.2 °F 23.4 °F 28.4 °F 93% 29.55 in 1.5 mi SSE 6.9 mph - N/A Snow Light Snow
5:12 PM 30.2 °F 24.3 °F 28.4 °F 93% 29.55 in 1.2 mi SSE 5.8 mph - 0.01 in Snow Light Snow
5:32 PM 30.2 °F 25.4 °F 28.4 °F 93% 29.55 in 4.0 mi SE 4.6 mph - 0.01 in   Overcast
5:52 PM 30.2 °F - 28.4 °F 93% 29.55 in 2.5 mi Calm Calm - 0.01 in   Overcast
6:12 PM 30.2 °F - 30.2 °F 100% 29.54 in 4.0 mi Calm Calm - N/A Snow Light Snow
6:32 PM 30.2 °F - 30.2 °F 100% 29.55 in 3.0 mi Calm Calm - N/A Snow Light Snow
6:52 PM 30.2 °F 25.4 °F 28.4 °F 93% 29.55 in 2.0 mi NE 4.6 mph - N/A Snow Light Snow
7:12 PM 30.2 °F 23.4 °F 28.4 °F 93% 29.56 in 3.0 mi NNE 6.9 mph - N/A Snow Light Snow
7:32 PM 30.2 °F 22.6 °F 28.4 °F 93% 29.57 in 2.5 mi North 8.1 mph - N/A Snow Light Snow
7:52 PM 30.2 °F 20.8 °F 28.4 °F 93% 29.58 in 2.0 mi North 11.5 mph - N/A Snow Light Snow
8:12 PM 30.2 °F 20.2 °F 28.4 °F 93% 29.59 in 1.8 mi NNW 12.7 mph - N/A Snow Light Snow
8:32 PM 30.2 °F 19.3 °F 28.4 °F 93% 29.60 in 2.0 mi NNW 15.0 mph - N/A Snow Light Snow
8:52 PM 28.4 °F 17.0 °F 28.4 °F 100% 29.61 in 2.5 mi NNW 15.0 mph - N/A Snow Light Snow
9:12 PM 28.4 °F 16.2 °F 28.4 °F 100% 29.62 in 3.0 mi NNW 17.3 mph - N/A Snow Light Snow
9:32 PM 28.4 °F 17.0 °F 28.4 °F 100% 29.63 in 2.5 mi NNW 15.0 mph - N/A Snow Light Snow
9:52 PM 28.4 °F 17.0 °F 26.6 °F 93% 29.64 in 4.0 mi NNW 15.0 mph - N/A Snow Light Snow
10:12 PM 28.4 °F 17.0 °F 26.6 °F 93% 29.65 in 5.0 mi NNW 15.0 mph - N/A   Overcast
10:32 PM 26.6 °F 13.8 °F 26.6 °F 100% 29.66 in 4.0 mi NW 17.3 mph - N/A   Overcast
10:52 PM 26.6 °F 14.7 °F 24.8 °F 93% 29.67 in 3.0 mi NW 15.0 mph - N/A   Overcast
11:12 PM 26.6 °F 14.7 °F 24.8 °F 93% 29.67 in 5.0 mi NW 15.0 mph - N/A   Overcast
11:32 PM 26.6 °F 13.1 °F 24.8 °F 93% 29.69 in 4.0 mi NW 19.6 mph - N/A   Overcast
11:52 PM 26.6 °F 13.1 °F 24.8 °F 93% 29.70 in 5.0 mi NW 19.6 mph - N/A   Overcast